createdAt,value
2023-01-26T00:02:12.002Z,103458.22
2023-01-26T00:04:40.137Z,103476.44
2023-01-26T00:07:08.281Z,103472.03
2023-01-26T00:09:36.480Z,103461.44
2023-01-26T00:12:04.680Z,103445.72
2023-01-26T00:14:50.043Z,103439.53
2023-01-26T00:17:26.234Z,103441.25
2023-01-26T00:19:56.434Z,103438.69
2023-01-26T00:22:25.517Z,103441.31
2023-01-26T00:24:53.739Z,103440.56
2023-01-26T00:27:22.039Z,103433.53
2023-01-26T00:29:51.487Z,103429.28
2023-01-26T00:32:19.616Z,103435.31
2023-01-26T00:34:47.869Z,103437.34
2023-01-26T00:37:17.224Z,103441.63
2023-01-26T00:39:45.366Z,103451.97
2023-01-26T00:42:14.438Z,103447.63
2023-01-26T00:44:44.040Z,103437.16
2023-01-26T00:47:15.184Z,103433.88
2023-01-26T00:49:43.315Z,103424.38
2023-01-26T00:52:11.881Z,103412.19
2023-01-26T00:54:40.004Z,103397.38
2023-01-26T00:57:08.290Z,103396.44
2023-01-26T00:59:36.456Z,103404.16
2023-01-26T01:02:05.167Z,103402.53
2023-01-26T01:04:34.769Z,103411.16
2023-01-26T01:07:02.871Z,103416.50
2023-01-26T01:09:31.042Z,103413.03
2023-01-26T01:11:59.201Z,103409.72
2023-01-26T01:14:27.317Z,103413.53
2023-01-26T01:16:55.451Z,103427.56
2023-01-26T01:19:23.571Z,103420.53
2023-01-26T01:21:53.024Z,103425.69
2023-01-26T01:24:21.244Z,103436.03
2023-01-26T01:26:49.484Z,103427.22
2023-01-26T01:29:17.824Z,103426.38
2023-01-26T01:31:46.052Z,103428.06
2023-01-26T01:34:14.157Z,103423.63
2023-01-26T01:36:42.339Z,103426.16
2023-01-26T01:39:12.075Z,103429.69
2023-01-26T01:41:40.344Z,103424.47
2023-01-26T01:44:20.005Z,103413.97
2023-01-26T01:46:53.255Z,103402.69
2023-01-26T01:49:25.962Z,103411.41
2023-01-26T01:51:59.116Z,103415.75
2023-01-26T01:54:33.622Z,103422.69
2023-01-26T01:57:15.800Z,103419.91
2023-01-26T01:59:47.347Z,103417.28
2023-01-26T02:02:15.969Z,103424.28
2023-01-26T02:04:44.220Z,103430.44
2023-01-26T02:07:13.149Z,103432.84
2023-01-26T02:10:01.010Z,103438.09
2023-01-26T02:12:32.313Z,103438.09
2023-01-26T02:15:02.133Z,103439.00
2023-01-26T02:17:30.360Z,103446.88
2023-01-26T02:20:09.264Z,103449.34
2023-01-26T02:22:46.832Z,103446.78
2023-01-26T02:25:24.175Z,103434.53
2023-01-26T02:27:53.739Z,103443.34
2023-01-26T02:30:23.961Z,103444.16
2023-01-26T02:32:52.130Z,103450.34
2023-01-26T02:35:20.336Z,103455.69
2023-01-26T02:37:48.498Z,103457.38
2023-01-26T02:40:26.123Z,103450.19
2023-01-26T02:42:55.486Z,103444.13
2023-01-26T02:45:25.026Z,103445.91
2023-01-26T02:47:53.547Z,103436.38
2023-01-26T02:50:20.811Z,103433.78
2023-01-26T02:52:48.920Z,103428.63
2023-01-26T02:55:26.536Z,103424.22
2023-01-26T02:57:57.848Z,103420.81
2023-01-26T03:00:27.929Z,103426.25
2023-01-26T03:02:58.707Z,103448.13
2023-01-26T03:05:27.726Z,103454.31
2023-01-26T03:07:56.737Z,103455.94
2023-01-26T03:10:27.125Z,103451.63
2023-01-26T03:12:56.697Z,103457.78
2023-01-26T03:15:43.690Z,103449.91
2023-01-26T03:18:30.854Z,103441.03
2023-01-26T03:21:18.540Z,103442.88
2023-01-26T03:24:04.092Z,103451.53
2023-01-26T03:26:49.895Z,103451.69
2023-01-26T03:29:19.505Z,103458.03
2023-01-26T03:31:48.164Z,103453.66
2023-01-26T03:34:16.347Z,103457.03
2023-01-26T03:36:44.621Z,103469.31
2023-01-26T03:39:35.703Z,103472.63
2023-01-26T03:42:21.727Z,103466.34
2023-01-26T03:45:08.622Z,103460.94
2023-01-26T03:47:54.921Z,103469.75
2023-01-26T03:50:40.548Z,103464.31
2023-01-26T03:53:33.000Z,103456.53
2023-01-26T03:56:21.893Z,103457.38
2023-01-26T03:58:52.711Z,103451.38
2023-01-26T04:01:26.499Z,103459.06
2023-01-26T04:04:14.145Z,103457.38
2023-01-26T04:07:01.996Z,103457.38
2023-01-26T04:09:30.857Z,103455.50
2023-01-26T04:11:59.160Z,103452.88
2023-01-26T04:14:49.692Z,103460.75
2023-01-26T04:17:37.589Z,103464.25
2023-01-26T04:20:24.386Z,103466.00
2023-01-26T04:22:52.858Z,103451.97
2023-01-26T04:25:23.008Z,103459.84
2023-01-26T04:27:51.108Z,103450.19
2023-01-26T04:30:19.784Z,103457.97
2023-01-26T04:32:49.332Z,103456.28
2023-01-26T04:35:17.668Z,103455.50
2023-01-26T04:37:45.816Z,103465.16
2023-01-26T04:40:14.753Z,103470.34
2023-01-26T04:42:42.998Z,103469.50
2023-01-26T04:45:12.103Z,103468.56
2023-01-26T04:47:40.270Z,103472.19
2023-01-26T04:50:11.953Z,103477.53
2023-01-26T04:52:40.409Z,103479.38
2023-01-26T04:55:09.177Z,103486.66
2023-01-26T04:57:37.214Z,103479.94
2023-01-26T05:00:06.062Z,103482.75
2023-01-26T05:02:34.328Z,103493.47
2023-01-26T05:05:02.389Z,103490.16
2023-01-26T05:07:31.931Z,103488.63
2023-01-26T05:10:00.107Z,103497.44
2023-01-26T05:12:38.420Z,103501.28
2023-01-26T05:15:07.395Z,103507.69
2023-01-26T05:17:36.248Z,103508.66
2023-01-26T05:20:04.705Z,103516.72
2023-01-26T05:22:34.355Z,103510.44
2023-01-26T05:25:02.499Z,103499.13
2023-01-26T05:27:30.780Z,103496.44
2023-01-26T05:30:00.688Z,103493.81
2023-01-26T05:32:29.793Z,103496.34
2023-01-26T05:34:58.123Z,103502.44
2023-01-26T05:37:26.909Z,103507.59
2023-01-26T05:39:56.686Z,103511.06
2023-01-26T05:42:25.136Z,103505.66
2023-01-26T05:44:53.373Z,103512.56
2023-01-26T05:47:21.643Z,103502.81
2023-01-26T05:49:50.447Z,103502.66
2023-01-26T05:52:19.897Z,103501.81
2023-01-26T05:54:48.307Z,103507.06
2023-01-26T05:57:18.126Z,103512.97
2023-01-26T05:59:46.218Z,103514.69
2023-01-26T06:02:15.008Z,103512.00
2023-01-26T06:04:43.129Z,103504.97
2023-01-26T06:07:13.681Z,103512.00
2023-01-26T06:09:42.338Z,103511.75
2023-01-26T06:12:15.784Z,103509.03
2023-01-26T06:14:47.248Z,103511.59
2023-01-26T06:17:18.109Z,103528.34
2023-01-26T06:19:46.251Z,103525.63
2023-01-26T06:22:15.796Z,103532.75
2023-01-26T06:24:43.926Z,103524.97
2023-01-26T06:27:14.560Z,103526.47
2023-01-26T06:29:44.716Z,103528.19
2023-01-26T06:32:12.883Z,103536.22
2023-01-26T06:34:41.036Z,103533.50
2023-01-26T06:37:09.222Z,103526.56
2023-01-26T06:39:37.743Z,103524.03
2023-01-26T06:42:06.160Z,103525.81
2023-01-26T06:44:34.369Z,103533.50
2023-01-26T06:47:03.918Z,103536.22
2023-01-26T06:49:31.950Z,103529.31
2023-01-26T06:52:04.410Z,103530.25
2023-01-26T06:54:32.555Z,103542.44
2023-01-26T06:57:01.186Z,103537.19
2023-01-26T06:59:29.300Z,103540.75
2023-01-26T07:01:57.398Z,103545.00
2023-01-26T07:04:28.442Z,103543.22
2023-01-26T07:06:56.529Z,103547.53
2023-01-26T07:09:24.748Z,103558.97
2023-01-26T07:11:52.962Z,103560.75
2023-01-26T07:14:21.098Z,103567.78
2023-01-26T07:16:49.314Z,103566.00
2023-01-26T07:19:17.495Z,103569.56
2023-01-26T07:21:47.081Z,103568.78
2023-01-26T07:24:15.501Z,103569.69
2023-01-26T07:26:43.716Z,103575.78
2023-01-26T07:29:11.857Z,103577.47
2023-01-26T07:31:41.459Z,103582.72
2023-01-26T07:34:10.984Z,103573.16
2023-01-26T07:36:39.083Z,103576.63
2023-01-26T07:39:08.939Z,103574.09
2023-01-26T07:41:37.115Z,103569.84
2023-01-26T07:44:08.517Z,103575.19
2023-01-26T07:46:36.558Z,103566.59
2023-01-26T07:49:04.750Z,103588.44
2023-01-26T07:51:32.828Z,103569.22
2023-01-26T07:54:00.954Z,103571.84
2023-01-26T07:56:30.523Z,103575.50
2023-01-26T07:58:58.992Z,103569.31
2023-01-26T08:01:27.156Z,103580.75
2023-01-26T08:03:56.197Z,103574.69
2023-01-26T08:06:25.441Z,103569.47
2023-01-26T08:08:55.061Z,103566.06
2023-01-26T08:11:24.691Z,103580.13
2023-01-26T08:13:54.309Z,103573.25
2023-01-26T08:16:22.565Z,103569.84
2023-01-26T08:18:50.636Z,103580.34
2023-01-26T08:21:20.428Z,103578.72
2023-01-26T08:23:51.393Z,103584.81
2023-01-26T08:26:21.267Z,103585.81
2023-01-26T08:28:49.737Z,103581.41
2023-01-26T08:31:21.853Z,103582.97
2023-01-26T08:33:51.835Z,103583.94
2023-01-26T08:36:22.601Z,103580.41
2023-01-26T08:38:51.300Z,103581.25
2023-01-26T08:41:20.370Z,103582.09
2023-01-26T08:43:48.915Z,103589.19
2023-01-26T08:46:18.834Z,103592.75
2023-01-26T08:48:46.985Z,103602.41
2023-01-26T08:51:15.278Z,103598.06
2023-01-26T08:53:43.413Z,103598.84
2023-01-26T08:56:13.717Z,103596.13
2023-01-26T08:58:42.249Z,103595.44
2023-01-26T09:01:13.856Z,103591.97
2023-01-26T09:03:44.753Z,103590.34
2023-01-26T09:06:14.831Z,103603.69
2023-01-26T09:08:43.343Z,103603.69
2023-01-26T09:11:12.309Z,103615.94
2023-01-26T09:13:41.066Z,103612.47
2023-01-26T09:16:14.563Z,103611.63
2023-01-26T09:18:44.102Z,103615.25
2023-01-26T09:21:15.086Z,103616.94
2023-01-26T09:23:43.195Z,103617.88
2023-01-26T09:26:11.917Z,103616.94
2023-01-26T09:28:40.624Z,103618.63
2023-01-26T09:31:11.059Z,103609.06
2023-01-26T09:33:39.380Z,103616.81
2023-01-26T09:36:11.854Z,103629.59
2023-01-26T09:38:40.286Z,103633.56
2023-01-26T09:41:19.475Z,103623.59
2023-01-26T09:43:52.778Z,103626.69
2023-01-26T09:46:23.022Z,103630.72
2023-01-26T09:49:03.079Z,103631.34
2023-01-26T09:51:36.010Z,103631.88
2023-01-26T09:54:16.104Z,103646.47
2023-01-26T09:56:44.393Z,103650.81
2023-01-26T09:59:25.428Z,103649.09
2023-01-26T10:02:00.219Z,103649.78
2023-01-26T10:04:36.550Z,103644.44
2023-01-26T10:07:12.196Z,103640.84
2023-01-26T10:09:44.034Z,103652.97
2023-01-26T10:12:21.094Z,103640.75
2023-01-26T10:14:55.365Z,103645.84
2023-01-26T10:17:31.871Z,103650.13
2023-01-26T10:20:06.426Z,103642.16
2023-01-26T10:22:44.088Z,103653.41
2023-01-26T10:25:17.834Z,103654.97
2023-01-26T10:27:47.102Z,103657.44
2023-01-26T10:30:17.722Z,103655.56
2023-01-26T10:32:48.775Z,103657.25
2023-01-26T10:35:20.557Z,103651.16
2023-01-26T10:37:52.390Z,103661.75
2023-01-26T10:40:21.095Z,103670.38
2023-01-26T10:42:58.272Z,103668.47
2023-01-26T10:45:29.646Z,103675.25
2023-01-26T10:48:15.948Z,103670.63
2023-01-26T10:50:44.445Z,103669.53
2023-01-26T10:53:19.195Z,103669.63
2023-01-26T10:56:00.631Z,103674.63
2023-01-26T10:58:46.043Z,103672.69
2023-01-26T11:01:14.791Z,103672.63
2023-01-26T11:03:44.413Z,103677.88
2023-01-26T11:06:16.776Z,103675.84
2023-01-26T11:08:46.445Z,103675.53
2023-01-26T11:11:27.274Z,103681.13
2023-01-26T11:14:14.165Z,103676.59
2023-01-26T11:16:45.352Z,103666.78
2023-01-26T11:19:16.722Z,103666.00
2023-01-26T11:21:47.944Z,103678.28
2023-01-26T11:24:26.701Z,103687.88
2023-01-26T11:27:15.996Z,103682.69
2023-01-26T11:29:58.025Z,103677.31
2023-01-26T11:32:38.353Z,103681.47
2023-01-26T11:35:16.326Z,103682.06
2023-01-26T11:37:47.266Z,103674.84
2023-01-26T11:40:42.140Z,103672.91
2023-01-26T11:43:37.282Z,103678.09
2023-01-26T11:46:18.209Z,103670.72
2023-01-26T11:49:00.278Z,103667.06
2023-01-26T11:51:45.358Z,103661.75
2023-01-26T11:54:30.529Z,103662.50
2023-01-26T11:57:07.939Z,103659.88
2023-01-26T11:59:40.050Z,103656.31
2023-01-26T12:02:27.628Z,103656.13
2023-01-26T12:04:57.330Z,103655.97
2023-01-26T12:07:31.355Z,103647.16
2023-01-26T12:10:01.702Z,103649.63
2023-01-26T12:12:38.809Z,103641.66
2023-01-26T12:15:14.601Z,103640.59
2023-01-26T12:17:53.858Z,103641.38
2023-01-26T12:20:30.349Z,103643.19
2023-01-26T12:23:04.818Z,103636.97
2023-01-26T12:25:36.034Z,103636.13
2023-01-26T12:28:12.701Z,103630.78
2023-01-26T12:30:50.173Z,103638.66
2023-01-26T12:33:18.434Z,103638.59
2023-01-26T12:36:17.012Z,103643.75
2023-01-26T12:39:05.020Z,103632.91
2023-01-26T12:41:42.213Z,103632.91
2023-01-26T12:44:22.313Z,103631.31
2023-01-26T12:46:56.257Z,103626.28
2023-01-26T12:49:29.022Z,103627.03
2023-01-26T12:52:03.269Z,103627.03
2023-01-26T12:54:37.991Z,103626.88
2023-01-26T12:57:11.701Z,103617.78
2023-01-26T12:59:48.634Z,103615.75
2023-01-26T13:02:27.491Z,103612.09
2023-01-26T13:04:57.766Z,103598.84
2023-01-26T13:07:32.360Z,103603.19
2023-01-26T13:10:26.101Z,103604.28
2023-01-26T13:12:57.092Z,103592.06
2023-01-26T13:15:29.050Z,103589.59
2023-01-26T13:17:59.919Z,103579.94
2023-01-26T13:20:44.956Z,103577.13
2023-01-26T13:23:40.561Z,103575.00
2023-01-26T13:26:20.801Z,103569.38
2023-01-26T13:28:50.077Z,103561.97
2023-01-26T13:31:34.111Z,103566.91
2023-01-26T13:34:08.789Z,103572.16
2023-01-26T13:36:40.250Z,103572.22
2023-01-26T13:39:13.457Z,103576.25
2023-01-26T13:41:49.167Z,103569.88
2023-01-26T13:44:22.889Z,103569.88
2023-01-26T13:46:58.491Z,103565.38
2023-01-26T13:49:28.455Z,103568.47
2023-01-26T13:51:56.615Z,103561.94
2023-01-26T13:54:27.902Z,103562.31
2023-01-26T13:57:04.160Z,103561.84
2023-01-26T13:59:33.401Z,103562.69
2023-01-26T14:02:03.227Z,103558.22
2023-01-26T14:04:34.135Z,103555.56
2023-01-26T14:07:06.296Z,103559.13
2023-01-26T14:09:42.499Z,103557.72
2023-01-26T14:12:18.892Z,103552.34
2023-01-26T14:14:49.392Z,103554.97
2023-01-26T14:17:27.641Z,103564.59
2023-01-26T14:19:56.339Z,103560.25
2023-01-26T14:22:24.617Z,103558.66
2023-01-26T14:24:54.043Z,103554.50
2023-01-26T14:27:33.780Z,103556.47
2023-01-26T14:30:02.822Z,103554.88
2023-01-26T14:32:33.006Z,103561.72
2023-01-26T14:35:01.774Z,103560.78
2023-01-26T14:37:30.024Z,103558.09
2023-01-26T14:40:21.601Z,103560.63
2023-01-26T14:42:51.916Z,103562.22
2023-01-26T14:45:29.734Z,103562.97
2023-01-26T14:48:02.583Z,103560.44
2023-01-26T14:50:32.503Z,103553.50
2023-01-26T14:53:04.184Z,103558.09
2023-01-26T14:55:36.285Z,103563.53
2023-01-26T14:58:14.471Z,103562.84
2023-01-26T15:00:42.778Z,103564.00
2023-01-26T15:03:22.222Z,103555.44
2023-01-26T15:05:50.648Z,103556.63
2023-01-26T15:08:24.020Z,103553.22
2023-01-26T15:11:17.028Z,103559.72
2023-01-26T15:13:48.118Z,103559.97
2023-01-26T15:16:18.723Z,103554.88
2023-01-26T15:18:59.552Z,103544.56
2023-01-26T15:21:34.861Z,103541.94
2023-01-26T15:24:04.762Z,103540.31
2023-01-26T15:26:35.417Z,103534.22
2023-01-26T15:29:06.126Z,103530.06
2023-01-26T15:31:38.080Z,103534.56
2023-01-26T15:34:08.153Z,103539.25
2023-01-26T15:36:47.693Z,103536.88
2023-01-26T15:39:18.043Z,103548.59
2023-01-26T15:41:48.027Z,103542.00
2023-01-26T15:44:17.824Z,103538.88
2023-01-26T15:46:46.557Z,103531.31
2023-01-26T15:49:19.994Z,103531.41
2023-01-26T15:51:48.125Z,103528.09
2023-01-26T15:54:16.456Z,103528.38
2023-01-26T15:56:44.797Z,103529.31
2023-01-26T15:59:12.943Z,103528.47
2023-01-26T16:01:42.295Z,103527.63
2023-01-26T16:04:13.829Z,103525.16
2023-01-26T16:06:43.121Z,103522.53
2023-01-26T16:09:11.250Z,103524.41
2023-01-26T16:11:47.530Z,103519.16
2023-01-26T16:14:16.277Z,103519.31
2023-01-26T16:16:44.745Z,103518.72
2023-01-26T16:19:20.525Z,103517.88
2023-01-26T16:21:55.992Z,103517.16
2023-01-26T16:24:24.207Z,103519.94
2023-01-26T16:26:52.260Z,103528.03
2023-01-26T16:29:21.307Z,103532.34
2023-01-26T16:31:49.405Z,103532.50
2023-01-26T16:34:17.651Z,103534.38
2023-01-26T16:36:45.690Z,103529.28
2023-01-26T16:39:15.640Z,103532.84
2023-01-26T16:41:43.810Z,103534.72
2023-01-26T16:44:14.589Z,103540.97
2023-01-26T16:46:44.648Z,103545.53
2023-01-26T16:49:15.748Z,103543.84
2023-01-26T16:51:45.212Z,103538.69
2023-01-26T16:54:14.700Z,103546.56
2023-01-26T16:56:42.898Z,103549.00
2023-01-26T16:59:11.046Z,103541.13
2023-01-26T17:01:40.494Z,103555.13
2023-01-26T17:04:11.166Z,103551.47
2023-01-26T17:06:39.306Z,103561.97
2023-01-26T17:09:07.455Z,103564.44
2023-01-26T17:11:37.061Z,103555.63
2023-01-26T17:14:05.244Z,103553.84
2023-01-26T17:16:33.487Z,103554.69
2023-01-26T17:19:01.981Z,103555.47
2023-01-26T17:21:30.110Z,103552.75
2023-01-26T17:23:59.503Z,103551.91
2023-01-26T17:26:27.627Z,103553.69
2023-01-26T17:28:57.425Z,103547.50
2023-01-26T17:31:26.588Z,103549.19
2023-01-26T17:33:56.082Z,103543.00
2023-01-26T17:36:24.713Z,103538.59
2023-01-26T17:38:53.226Z,103542.16
2023-01-26T17:41:21.323Z,103538.59
2023-01-26T17:43:51.282Z,103539.47
2023-01-26T17:46:22.763Z,103544.72
2023-01-26T17:48:51.096Z,103538.59
2023-01-26T17:51:21.751Z,103543.00
2023-01-26T17:53:50.858Z,103543.94
2023-01-26T17:56:20.969Z,103544.03
2023-01-26T17:58:50.410Z,103550.13
2023-01-26T18:01:20.774Z,103541.31
2023-01-26T18:03:49.553Z,103547.41
2023-01-26T18:06:18.164Z,103547.41
2023-01-26T18:08:46.371Z,103542.09
2023-01-26T18:11:16.641Z,103540.31
2023-01-26T18:13:45.541Z,103538.59
2023-01-26T18:16:16.645Z,103534.22
2023-01-26T18:18:46.699Z,103538.53
2023-01-26T18:21:17.150Z,103536.84
2023-01-26T18:23:47.014Z,103537.69
2023-01-26T18:26:15.733Z,103540.38
2023-01-26T18:28:44.572Z,103543.00
2023-01-26T18:31:14.573Z,103543.09
2023-01-26T18:33:43.405Z,103540.63
2023-01-26T18:36:15.325Z,103541.47
2023-01-26T18:38:45.148Z,103534.53
2023-01-26T18:41:14.586Z,103538.09
2023-01-26T18:43:44.428Z,103528.59
2023-01-26T18:46:13.282Z,103530.22
2023-01-26T18:48:41.716Z,103533.69
2023-01-26T18:51:10.501Z,103523.16
2023-01-26T18:53:40.282Z,103523.16
2023-01-26T18:56:10.476Z,103518.75
2023-01-26T18:58:39.596Z,103520.63
2023-01-26T19:01:10.907Z,103522.50
2023-01-26T19:03:41.712Z,103518.00
2023-01-26T19:06:10.637Z,103518.84
2023-01-26T19:08:40.419Z,103517.91
2023-01-26T19:11:10.168Z,103517.06
2023-01-26T19:13:42.212Z,103515.28
2023-01-26T19:16:10.914Z,103519.69
2023-01-26T19:18:39.032Z,103521.59
2023-01-26T19:21:07.341Z,103518.00
2023-01-26T19:23:37.601Z,103514.44
2023-01-26T19:26:12.604Z,103516.22
2023-01-26T19:28:42.063Z,103514.34
2023-01-26T19:31:10.989Z,103513.50
2023-01-26T19:33:39.660Z,103505.56
2023-01-26T19:36:08.900Z,103505.63
2023-01-26T19:38:39.777Z,103495.97
2023-01-26T19:41:08.078Z,103510.81
2023-01-26T19:43:37.748Z,103514.34
2023-01-26T19:46:08.511Z,103512.50
2023-01-26T19:48:36.822Z,103514.19
2023-01-26T19:51:07.306Z,103516.81
2023-01-26T19:53:37.153Z,103516.81
2023-01-26T19:56:10.471Z,103513.34
2023-01-26T19:58:40.536Z,103502.94
2023-01-26T20:01:10.737Z,103511.66
2023-01-26T20:03:40.170Z,103520.63
2023-01-26T20:06:15.522Z,103517.22
2023-01-26T20:08:43.744Z,103517.22
2023-01-26T20:11:12.211Z,103511.97
2023-01-26T20:13:42.004Z,103510.47
2023-01-26T20:16:11.800Z,103508.75
2023-01-26T20:18:40.269Z,103507.06
2023-01-26T20:21:08.432Z,103508.94
2023-01-26T20:23:38.497Z,103509.00
2023-01-26T20:26:12.107Z,103511.88
2023-01-26T20:28:42.178Z,103508.50
2023-01-26T20:31:14.061Z,103514.75
2023-01-26T20:33:42.546Z,103521.03
2023-01-26T20:36:13.663Z,103524.59
2023-01-26T20:38:41.895Z,103526.53
2023-01-26T20:41:11.492Z,103533.72
2023-01-26T20:43:58.507Z,103531.25
2023-01-26T20:46:29.499Z,103522.63
2023-01-26T20:48:58.310Z,103530.59
2023-01-26T20:51:30.489Z,103532.38
2023-01-26T20:53:59.370Z,103530.84
2023-01-26T20:56:27.945Z,103524.75
2023-01-26T20:58:57.952Z,103521.09
2023-01-26T21:01:27.049Z,103520.25
2023-01-26T21:03:55.680Z,103528.03
2023-01-26T21:06:24.702Z,103519.41
2023-01-26T21:08:55.315Z,103516.78
2023-01-26T21:11:25.186Z,103511.69
2023-01-26T21:13:53.905Z,103509.16
2023-01-26T21:16:24.486Z,103513.63
2023-01-26T21:18:53.058Z,103512.00
2023-01-26T21:21:22.736Z,103518.09
2023-01-26T21:23:51.706Z,103515.56
2023-01-26T21:26:22.648Z,103510.38
2023-01-26T21:28:52.689Z,103520.03
2023-01-26T21:31:22.401Z,103518.34
2023-01-26T21:33:52.691Z,103510.47
2023-01-26T21:36:22.738Z,103514.78
2023-01-26T21:38:52.395Z,103519.19
2023-01-26T21:41:40.102Z,103521.81
2023-01-26T21:44:11.069Z,103518.34
2023-01-26T21:46:39.703Z,103514.19
2023-01-26T21:49:10.785Z,103519.53
2023-01-26T21:51:56.516Z,103514.50
2023-01-26T21:54:24.759Z,103515.59
2023-01-26T21:56:53.028Z,103518.22
2023-01-26T21:59:20.286Z,103511.28
2023-01-26T22:01:50.916Z,103511.53
2023-01-26T22:04:23.596Z,103506.38
2023-01-26T22:06:52.241Z,103508.97
2023-01-26T22:09:21.416Z,103500.19
2023-01-26T22:11:50.608Z,103506.38
2023-01-26T22:14:21.945Z,103507.25
2023-01-26T22:16:50.287Z,103496.84
2023-01-26T22:19:20.271Z,103494.16
2023-01-26T22:21:49.345Z,103495.88
2023-01-26T22:24:20.754Z,103490.63
2023-01-26T22:26:49.039Z,103502.00
2023-01-26T22:29:18.208Z,103491.53
2023-01-26T22:31:46.780Z,103488.00
2023-01-26T22:34:15.050Z,103495.78
2023-01-26T22:36:44.751Z,103493.06
2023-01-26T22:39:13.436Z,103481.88
2023-01-26T22:41:41.958Z,103492.38
2023-01-26T22:44:10.873Z,103493.06
2023-01-26T22:46:38.965Z,103487.81
2023-01-26T22:49:07.208Z,103496.47
2023-01-26T22:51:37.696Z,103499.09
2023-01-26T22:54:07.352Z,103498.16
2023-01-26T22:56:35.536Z,103494.69
2023-01-26T22:59:03.671Z,103488.00
2023-01-26T23:01:33.749Z,103486.75
2023-01-26T23:04:02.756Z,103491.09
2023-01-26T23:06:31.543Z,103493.25
2023-01-26T23:09:01.321Z,103497.88
2023-01-26T23:11:31.585Z,103491.84
2023-01-26T23:14:01.488Z,103488.56
2023-01-26T23:16:29.892Z,103485.25
2023-01-26T23:18:59.543Z,103486.31
2023-01-26T23:21:29.761Z,103490.03
2023-01-26T23:23:57.979Z,103491.19
2023-01-26T23:26:26.722Z,103495.59
2023-01-26T23:28:56.547Z,103492.16
2023-01-26T23:31:24.877Z,103488.78
2023-01-26T23:33:53.137Z,103492.16
2023-01-26T23:36:21.892Z,103485.94
2023-01-26T23:38:50.438Z,103481.63
2023-01-26T23:41:19.216Z,103488.66
2023-01-26T23:43:50.361Z,103486.09
2023-01-26T23:46:20.071Z,103483.63
2023-01-26T23:48:48.187Z,103486.16
2023-01-26T23:51:16.425Z,103476.63
2023-01-26T23:53:44.487Z,103474.91
2023-01-26T23:56:17.302Z,103470.75
2023-01-26T23:58:45.998Z,103470.06
